Stations météo

Publicité
Mt. St.Vincent, France (7382): Température de l'air & dewpoint: 14.08.2019 13:00:00 - 20.08.2019 13:00:00 (CEST)Mt. St.Vincent, France (7382): Vitesse du vent & gusts: 14.08.2019 13:00:00 - 20.08.2019 13:00:00 (CEST)Mt. St.Vincent, France (7382): Direction du vent: 14.08.2019 13:00:00 - 20.08.2019 13:00:00 (CEST)Mt. St.Vincent, France (7382): Ensoleillement: 14.08.2019 13:00:00 - 20.08.2019 13:00:00 (CEST)Mt. St.Vincent, France (7382): Quantités de précipitations: 14.08.2019 13:00:00 - 20.08.2019 13:00:00 (CEST)
Date & Time tt [°C] td [°C] ff [km/h] ff [knt] fx [km/h] fx [knt] dd sd [min] rr [mm]
20.08.2019 13:00:00 - - - - - - - - -
20.08.2019 12:00:00 15,3 8,8 8 4 26 14 NNE 0 0,0
20.08.2019 11:00:00 14,8 8,3 11 6 28 15 NNE 0 0,0
20.08.2019 10:00:00 14,3 8,3 13 7 26 14 NE 0 0,0
20.08.2019 09:00:00 14,2 8,4 11 6 28 15 NE 0 0,0
20.08.2019 08:00:00 13,8 8,4 15 8 29 16 NE 0 -
20.08.2019 07:00:00 14,8 8,5 16 9 29 16 NNE 0 0,0
20.08.2019 06:00:00 14,1 8,5 13 7 34 18 NE 0 0,0
20.08.2019 05:00:00 14,5 8,4 16 9 31 17 NE 0 0,0
20.08.2019 04:00:00 14,6 8,5 16 9 29 16 NE 0 0,0
20.08.2019 03:00:00 14,6 8,3 13 7 29 16 NNE 0 0,0
20.08.2019 02:00:00 15,2 8,2 11 6 28 15 NNE 0 -
20.08.2019 01:00:00 15,5 7,5 8 4 22 12 N 0 0,0
20.08.2019 00:00:00 15,3 7,6 5 3 15 8 WNW 0 0,0
19.08.2019 23:00:00 15,7 7,5 4 2 18 10 NW 0 0,0
19.08.2019 22:00:00 16,6 7,8 9 5 18 10 WNW 0 0,0
19.08.2019 21:00:00 16,8 7,7 9 5 15 8 W 12 0,0
19.08.2019 20:00:00 17,9 8,2 11 6 18 10 W 6 -
19.08.2019 19:00:00 18,5 8,5 9 5 22 12 WNW 0 0,0
19.08.2019 18:00:00 19,8 8,2 5 3 31 17 NW 24 0,0
19.08.2019 17:00:00 20,2 8,8 13 7 34 18 WNW 48 0,0
19.08.2019 16:00:00 20,4 8,1 15 8 35 19 WNW 54 0,0
19.08.2019 15:00:00 20,6 10,1 15 8 29 16 W 36 0,0
19.08.2019 14:00:00 18,3 9,6 18 10 31 17 W 36 -
19.08.2019 13:00:00 17,5 10,8 15 8 31 17 W 48 0,0
19.08.2019 12:00:00 15,8 9,5 18 10 31 17 W 6 0,0
19.08.2019 11:00:00 14,6 11,4 16 9 34 18 W 12 0,0
19.08.2019 10:00:00 13,9 11,8 21 11 37 20 W 12 0,0
19.08.2019 09:00:00 13,6 12,3 15 8 41 22 WNW 12 0,0
19.08.2019 08:00:00 13,3 13,1 24 13 39 21 W 0 -
19.08.2019 07:00:00 13,8 13,8 18 10 31 17 W 0 0,0
19.08.2019 06:00:00 14,2 14,2 18 10 29 16 WNW 0 0,0
19.08.2019 05:00:00 14,6 14,4 16 9 34 18 W 0 0,2
19.08.2019 04:00:00 15,0 14,7 22 12 31 17 W 0 0,0
19.08.2019 03:00:00 15,5 14,5 21 11 35 19 W 0 0,0
19.08.2019 02:00:00 16,1 14,5 16 9 35 19 WNW 0 -
19.08.2019 01:00:00 16,8 14,4 18 10 34 18 WNW 0 0,2
19.08.2019 00:00:00 18,2 15,6 15 8 26 14 W 0 0,0
18.08.2019 23:00:00 18,4 15,6 5 3 28 15 WNW 0 0,0
18.08.2019 22:00:00 19,3 16,1 9 5 28 15 WNW 0 0,0
18.08.2019 21:00:00 19,7 15,8 4 2 39 21 NNW 0 0,0
18.08.2019 20:00:00 22,2 15,5 15 8 48 26 WNW 30 -
18.08.2019 19:00:00 23,9 15,9 18 10 39 21 WNW 6 0,0
18.08.2019 18:00:00 25,4 16,5 9 5 31 17 WNW 18 0,0
18.08.2019 17:00:00 24,9 16,3 11 6 35 19 WNW 24 0,0
18.08.2019 16:00:00 27,1 17,3 11 6 29 16 WNW 54 0,0
18.08.2019 15:00:00 25,7 16,3 18 10 35 19 WNW 54 0,0
18.08.2019 14:00:00 24,9 15,2 18 10 46 25 W 36 -
18.08.2019 13:00:00 26,3 14,4 24 13 46 25 WSW 48 0,0
18.08.2019 12:00:00 25,1 15,4 18 10 29 16 W 36 0,0
18.08.2019 11:00:00 24,6 15,0 8 4 22 12 SW 60 0,0
18.08.2019 10:00:00 23,7 13,8 9 5 16 9 SE 60 0,0
18.08.2019 09:00:00 23,3 13,7 9 5 18 10 SE 60 0,0
18.08.2019 08:00:00 20,7 12,7 13 7 24 13 SSW 54 -
18.08.2019 07:00:00 20,6 12,6 18 10 29 16 WSW 0 0,0
18.08.2019 06:00:00 21,2 11,5 16 9 24 13 WSW 0 0,0
18.08.2019 05:00:00 21,1 13,5 13 7 21 11 SSE 0 0,0
18.08.2019 04:00:00 20,6 13,8 15 8 22 12 SSE 0 0,0
18.08.2019 03:00:00 19,6 14,4 8 4 29 16 S 0 0,0
18.08.2019 02:00:00 20,7 14,6 22 12 37 20 W 0 -
18.08.2019 01:00:00 21,0 14,2 22 12 34 18 W 0 0,0
18.08.2019 00:00:00 21,6 13,5 18 10 31 17 W 0 0,0
17.08.2019 23:00:00 22,5 13,0 18 10 31 17 W 0 0,0
17.08.2019 22:00:00 23,1 12,4 16 9 28 15 W 0 0,0
17.08.2019 21:00:00 24,1 12,4 15 8 31 17 W 12 0,0
17.08.2019 20:00:00 25,5 12,0 16 9 41 22 W 24 -
17.08.2019 19:00:00 25,2 11,7 21 11 39 21 W 0 0,0
17.08.2019 18:00:00 25,1 12,3 18 10 24 13 WSW 0 0,0
17.08.2019 17:00:00 26,7 11,6 16 9 37 20 SW 12 0,0
17.08.2019 16:00:00 26,6 12,3 18 10 35 19 WSW 18 0,0
17.08.2019 15:00:00 24,6 10,5 22 12 37 20 WSW 0 0,0
17.08.2019 14:00:00 24,5 9,2 18 10 35 19 WSW 6 -
17.08.2019 13:00:00 25,8 10,0 13 7 44 24 WSW 54 0,0
17.08.2019 12:00:00 23,7 11,7 15 8 31 17 WSW 48 0,0
17.08.2019 11:00:00 20,9 11,8 9 5 18 10 SSW 6 0,0
17.08.2019 10:00:00 19,3 11,6 11 6 24 13 SSW 0 0,0
17.08.2019 09:00:00 17,8 11,1 15 8 31 17 SW 0 0,0
17.08.2019 08:00:00 16,8 10,6 22 12 37 20 W 0 -
17.08.2019 07:00:00 16,6 10,7 24 13 39 21 W 0 0,0
17.08.2019 06:00:00 16,8 11,1 24 13 37 20 W 0 0,0
17.08.2019 05:00:00 17,4 11,2 24 13 39 21 W 0 0,0
17.08.2019 04:00:00 17,1 11,4 22 12 34 18 W 0 0,0
17.08.2019 03:00:00 17,4 11,2 22 12 41 22 W 0 0,0
17.08.2019 02:00:00 19,1 10,9 26 14 42 23 SW 0 -
17.08.2019 01:00:00 19,3 11,1 18 10 29 16 SSW 0 0,0
17.08.2019 00:00:00 19,1 11,4 16 9 22 12 SSW 0 0,0
16.08.2019 23:00:00 18,6 11,2 15 8 24 13 SSE 0 0,0
16.08.2019 22:00:00 18,8 11,8 13 7 21 11 SE 0 0,0
16.08.2019 21:00:00 19,0 11,6 15 8 18 10 ESE 0 0,0
16.08.2019 20:00:00 20,1 11,8 15 8 21 11 ESE 36 -
16.08.2019 19:00:00 21,0 12,2 13 7 22 12 ESE 36 0,0
16.08.2019 18:00:00 21,9 11,9 8 4 21 11 SSE 54 0,0
16.08.2019 17:00:00 22,5 11,6 5 3 24 13 SE 48 0,0
16.08.2019 16:00:00 22,1 11,8 9 5 21 11 SE 60 0,0
16.08.2019 15:00:00 21,8 11,5 9 5 21 11 W 48 0,0
16.08.2019 14:00:00 21,1 11,4 5 3 21 11 WNW 54 -
16.08.2019 13:00:00 20,2 11,4 4 2 18 10 S 42 0,0
16.08.2019 12:00:00 19,4 11,9 9 5 22 12 ESE 54 0,0
16.08.2019 11:00:00 17,3 12,2 9 5 22 12 E 48 0,0
16.08.2019 10:00:00 17,0 11,5 13 7 21 11 E 60 0,0
16.08.2019 09:00:00 16,7 11,4 4 2 15 8 NE 54 0,0
16.08.2019 08:00:00 15,1 10,3 5 3 16 9 N 54 -
16.08.2019 07:00:00 13,2 9,8 8 4 16 9 NNW 0 0,0
16.08.2019 06:00:00 12,7 9,5 5 3 16 9 NNW 0 0,0
16.08.2019 05:00:00 13,3 9,7 11 6 22 12 WNW 0 0,0
16.08.2019 04:00:00 13,7 9,5 16 9 26 14 WNW 0 0,0
16.08.2019 03:00:00 14,1 9,5 15 8 24 13 WNW 0 0,0
16.08.2019 02:00:00 14,4 9,2 13 7 28 15 WNW 0 -
16.08.2019 01:00:00 14,7 9,1 15 8 31 17 WNW 0 0,0
16.08.2019 00:00:00 15,2 9,1 21 11 34 18 WNW 0 0,0
15.08.2019 23:00:00 15,4 8,6 21 11 31 17 WNW 0 0,0
15.08.2019 22:00:00 15,8 9,0 13 7 29 16 WNW 0 0,0
15.08.2019 21:00:00 16,4 8,9 16 9 34 18 W 30 0,0
15.08.2019 20:00:00 18,1 10,2 16 9 41 22 WNW 42 -
15.08.2019 19:00:00 18,9 11,0 21 11 41 22 W 48 0,0
15.08.2019 18:00:00 20,3 11,0 18 10 46 25 WNW 30 0,0
15.08.2019 17:00:00 18,9 10,5 16 9 48 26 WNW 18 0,0
15.08.2019 16:00:00 19,7 9,6 24 13 50 27 W 42 0,0
15.08.2019 15:00:00 19,0 10,5 16 9 48 26 WNW 30 0,0
15.08.2019 14:00:00 19,3 11,1 31 17 55 30 W 36 -
15.08.2019 13:00:00 17,1 12,0 29 16 50 27 W 12 0,0
15.08.2019 12:00:00 15,3 13,0 26 14 42 23 W 0 0,0
15.08.2019 11:00:00 14,6 14,3 24 13 50 27 W 0 0,0
15.08.2019 10:00:00 15,7 13,5 16 9 29 16 WNW 18 0,0
15.08.2019 09:00:00 15,0 12,5 16 9 34 18 W 0 0,0
15.08.2019 08:00:00 16,0 11,0 21 11 35 19 W 0 -
15.08.2019 07:00:00 15,8 10,3 24 13 37 20 W 0 0,0
15.08.2019 06:00:00 15,2 10,8 18 10 34 18 WSW 0 0,0
15.08.2019 05:00:00 16,4 10,9 24 13 44 24 W 0 0,0
15.08.2019 04:00:00 16,6 9,8 28 15 44 24 W 0 0,0
15.08.2019 03:00:00 16,3 9,2 22 12 37 20 W 0 0,0
15.08.2019 02:00:00 16,4 8,9 18 10 26 14 W 0 -
15.08.2019 01:00:00 16,8 9,0 18 10 34 18 W 0 0,0
15.08.2019 00:00:00 17,6 8,4 13 7 18 10 SSW 0 0,0
14.08.2019 23:00:00 17,9 8,2 13 7 18 10 SSE 0 0,0
14.08.2019 22:00:00 17,9 8,2 9 5 13 7 SSE 0 0,0
14.08.2019 21:00:00 18,8 7,9 5 3 9 5 SSW 30 0,0
14.08.2019 20:00:00 21,3 9,5 8 4 16 9 W 60 -
14.08.2019 19:00:00 22,2 9,0 9 5 18 10 W 60 0,0
14.08.2019 18:00:00 22,2 8,3 9 5 22 12 WSW 60 0,0
14.08.2019 17:00:00 22,1 8,9 4 2 18 10 NNW 60 0,0
14.08.2019 16:00:00 21,2 9,1 5 3 16 9 SSE 54 0,0
14.08.2019 15:00:00 - - - - - - - - -
14.08.2019 14:00:00 20,6 9,2 4 2 18 10 ESE 54 -
14.08.2019 13:00:00 19,2 9,1 8 4 15 8 E 48 0,0

tt = Température de l'air
td = dewpoint
ff = Vitesse du vent
fx = gusts
dd = Direction du vent
sd = Ensoleillement
rr = Quantités de précipitations

stations d'obs. à proximité